createdAt,value
2022-10-11T00:00:24.528Z,96448.94
2022-10-11T00:03:04.476Z,96452.94
2022-10-11T00:05:41.480Z,96451.19
2022-10-11T00:08:22.488Z,96457.41
2022-10-11T00:11:10.483Z,96466.78
2022-10-11T00:13:52.172Z,96456.34
2022-10-11T00:16:32.030Z,96459.06
2022-10-11T00:19:14.553Z,96456.81
2022-10-11T00:21:57.539Z,96461.31
2022-10-11T00:24:35.544Z,96460.34
2022-10-11T00:27:13.103Z,96464.41
2022-10-11T00:29:51.891Z,96472.13
2022-10-11T00:32:31.102Z,96468.06
2022-10-11T00:35:08.875Z,96473.91
2022-10-11T00:37:50.055Z,96481.78
2022-10-11T00:40:31.586Z,96454.34
2022-10-11T00:43:10.514Z,96482.72
2022-10-11T00:46:10.606Z,96483.81
2022-10-11T00:48:50.509Z,96490.56
2022-10-11T00:51:41.971Z,96490.16
2022-10-11T00:54:23.509Z,96496.38
2022-10-11T00:57:05.158Z,96506.94
2022-10-11T00:59:48.634Z,96504.63
2022-10-11T01:02:26.088Z,96512.59
2022-10-11T01:05:27.600Z,96518.56
2022-10-11T01:08:03.170Z,96516.78
2022-10-11T01:10:43.541Z,96524.53
2022-10-11T01:13:29.976Z,96525.34
2022-10-11T01:16:10.271Z,96522.22
2022-10-11T01:18:54.021Z,96525.31
2022-10-11T01:21:41.551Z,96523.66
2022-10-11T01:24:51.498Z,96522.72
2022-10-11T01:28:02.073Z,96523.25
2022-10-11T01:30:43.743Z,96529.50
2022-10-11T01:33:33.110Z,96527.75
2022-10-11T01:36:20.250Z,96526.50
2022-10-11T01:39:00.555Z,96537.22
2022-10-11T01:41:43.396Z,96533.13
2022-10-11T01:44:23.515Z,96540.75
2022-10-11T01:47:06.560Z,96535.59
2022-10-11T01:49:47.590Z,96541.00
2022-10-11T01:52:27.949Z,96542.06
2022-10-11T01:55:22.646Z,96533.59
2022-10-11T01:58:14.938Z,96552.88
2022-10-11T02:01:02.416Z,96554.75
2022-10-11T02:03:54.616Z,96552.81
2022-10-11T02:06:40.564Z,96560.34
2022-10-11T02:09:19.161Z,96565.72
2022-10-11T02:11:59.970Z,96561.91
2022-10-11T02:14:40.613Z,96557.63
2022-10-11T02:17:20.574Z,96557.16
2022-10-11T02:20:04.575Z,96553.69
2022-10-11T02:22:45.470Z,96555.00
2022-10-11T02:25:27.690Z,96544.19
2022-10-11T02:28:08.689Z,96559.00
2022-10-11T02:30:48.950Z,96562.91
2022-10-11T02:33:29.860Z,96565.34
2022-10-11T02:36:13.389Z,96564.78
2022-10-11T02:38:54.731Z,96566.88
2022-10-11T02:41:41.274Z,96569.91
2022-10-11T02:44:23.588Z,96569.34
2022-10-11T02:47:06.266Z,96572.38
2022-10-11T02:49:48.072Z,96564.44
2022-10-11T02:52:30.623Z,96575.06
2022-10-11T02:55:09.678Z,96579.63
2022-10-11T02:57:50.639Z,96577.19
2022-10-11T03:00:29.115Z,96572.25
2022-10-11T03:03:15.601Z,96580.69
2022-10-11T03:05:52.608Z,96576.00
2022-10-11T03:08:35.464Z,96580.41
2022-10-11T03:11:15.522Z,96581.38
2022-10-11T03:13:56.611Z,96584.88
2022-10-11T03:16:36.497Z,96588.97
2022-10-11T03:19:19.337Z,96587.91
2022-10-11T03:21:59.803Z,96592.94
2022-10-11T03:24:39.429Z,96593.53
2022-10-11T03:27:19.713Z,96592.34
2022-10-11T03:30:02.713Z,96594.59
2022-10-11T03:32:40.039Z,96591.06
2022-10-11T03:35:18.631Z,96585.69
2022-10-11T03:38:00.672Z,96593.28
2022-10-11T03:40:41.120Z,96596.69
2022-10-11T03:43:19.692Z,96597.84
2022-10-11T03:46:02.009Z,96601.69
2022-10-11T03:48:39.456Z,96585.41
2022-10-11T03:51:16.635Z,96605.75
2022-10-11T03:53:57.116Z,96606.31
2022-10-11T03:56:38.126Z,96610.97
2022-10-11T03:59:13.122Z,96609.78
2022-10-11T04:01:53.747Z,96607.09
2022-10-11T04:04:33.370Z,96609.19
2022-10-11T04:07:11.274Z,96613.84
2022-10-11T04:09:53.647Z,96611.84
2022-10-11T04:12:34.330Z,96609.44
2022-10-11T04:15:16.367Z,96607.31
2022-10-11T04:17:56.656Z,96616.19
2022-10-11T04:20:38.145Z,96616.81
2022-10-11T04:23:16.704Z,96620.03
2022-10-11T04:25:58.317Z,96619.44
2022-10-11T04:28:38.108Z,96620.47
2022-10-11T04:31:16.281Z,96614.34
2022-10-11T04:33:53.511Z,96623.72
2022-10-11T04:36:30.008Z,96635.44
2022-10-11T04:39:03.593Z,96633.56
2022-10-11T04:41:34.100Z,96623.66
2022-10-11T04:44:05.701Z,96630.41
2022-10-11T04:46:35.932Z,96631.22
2022-10-11T04:49:09.319Z,96633.09
2022-10-11T04:51:43.055Z,96626.50
2022-10-11T04:54:16.494Z,96625.09
2022-10-11T04:56:50.092Z,96608.53
2022-10-11T04:59:26.943Z,96631.28
2022-10-11T05:02:00.214Z,96629.25
2022-10-11T05:04:31.989Z,96630.72
2022-10-11T05:07:04.076Z,96630.09
2022-10-11T05:09:36.442Z,96627.66
2022-10-11T05:12:07.617Z,96630.22
2022-10-11T05:14:40.911Z,96637.91
2022-10-11T05:17:13.014Z,96638.91
2022-10-11T05:19:44.071Z,96639.25
2022-10-11T05:22:17.133Z,96641.19
2022-10-11T05:24:48.814Z,96631.97
2022-10-11T05:27:20.783Z,96631.28
2022-10-11T05:29:55.043Z,96635.47
2022-10-11T05:32:28.017Z,96642.03
2022-10-11T05:34:58.151Z,96642.13
2022-10-11T05:37:29.458Z,96638.75
2022-10-11T05:39:59.646Z,96642.94
2022-10-11T05:42:30.163Z,96648.56
2022-10-11T05:45:04.716Z,96652.78
2022-10-11T05:47:34.715Z,96659.13
2022-10-11T05:50:06.716Z,96662.06
2022-10-11T05:52:38.951Z,96652.44
2022-10-11T05:55:11.098Z,96656.09
2022-10-11T05:57:43.358Z,96651.38
2022-10-11T06:00:16.019Z,96656.06
2022-10-11T06:02:47.522Z,96659.09
2022-10-11T06:05:20.567Z,96657.38
2022-10-11T06:07:52.736Z,96656.88
2022-10-11T06:10:25.879Z,96662.38
2022-10-11T06:12:57.421Z,96665.94
2022-10-11T06:15:29.378Z,96674.00
2022-10-11T06:18:01.180Z,96664.72
2022-10-11T06:20:31.853Z,96672.00
2022-10-11T06:23:03.236Z,96677.41
2022-10-11T06:25:35.222Z,96681.66
2022-10-11T06:28:09.176Z,96677.13
2022-10-11T06:30:44.131Z,96675.63
2022-10-11T06:33:15.906Z,96686.97
2022-10-11T06:35:47.945Z,96686.63
2022-10-11T06:38:19.457Z,96692.16
2022-10-11T06:40:52.266Z,96692.28
2022-10-11T06:43:25.913Z,96694.91
2022-10-11T06:46:04.134Z,96694.19
2022-10-11T06:48:34.295Z,96693.41
2022-10-11T06:51:05.866Z,96695.03
2022-10-11T06:53:38.587Z,96691.47
2022-10-11T06:56:13.446Z,96692.84
2022-10-11T06:58:44.373Z,96684.19
2022-10-11T07:01:20.713Z,96696.69
2022-10-11T07:03:52.692Z,96694.34
2022-10-11T07:06:24.881Z,96673.28
2022-10-11T07:08:55.681Z,96699.94
2022-10-11T07:11:27.341Z,96703.72
2022-10-11T07:14:00.043Z,96703.56
2022-10-11T07:16:34.175Z,96698.75
2022-10-11T07:19:06.443Z,96704.53
2022-10-11T07:21:38.066Z,96707.09
2022-10-11T07:24:08.860Z,96702.19
2022-10-11T07:26:39.626Z,96703.72
2022-10-11T07:29:11.225Z,96701.63
2022-10-11T07:31:44.043Z,96704.75
2022-10-11T07:34:46.221Z,96710.28
2022-10-11T07:37:15.561Z,96709.88
2022-10-11T07:39:46.640Z,96717.16
2022-10-11T07:42:17.089Z,96709.69
2022-10-11T07:44:48.203Z,96715.13
2022-10-11T07:47:21.199Z,96713.09
2022-10-11T07:49:51.398Z,96714.50
2022-10-11T07:52:21.914Z,96713.25
2022-10-11T07:54:52.536Z,96707.66
2022-10-11T07:57:22.865Z,96705.19
2022-10-11T07:59:53.727Z,96712.16
2022-10-11T08:02:28.751Z,96700.66
2022-10-11T08:05:01.895Z,96704.94
2022-10-11T08:07:34.906Z,96697.78
2022-10-11T08:10:07.687Z,96699.22
2022-10-11T08:12:40.182Z,96700.25
2022-10-11T08:15:12.260Z,96711.53
2022-10-11T08:17:47.287Z,96688.31
2022-10-11T08:20:19.279Z,96698.59
2022-10-11T08:22:54.004Z,96702.22
2022-10-11T08:25:26.078Z,96709.06
2022-10-11T08:28:00.275Z,96707.03
2022-10-11T08:30:33.199Z,96715.84
2022-10-11T08:33:08.722Z,96707.56
2022-10-11T08:35:41.914Z,96711.16
2022-10-11T08:38:13.283Z,96710.72
2022-10-11T08:40:49.532Z,96695.63
2022-10-11T08:43:32.882Z,96707.22
2022-10-11T08:46:05.811Z,96704.78
2022-10-11T08:48:41.170Z,96705.13
2022-10-11T08:51:19.055Z,96700.69
2022-10-11T08:53:54.699Z,96705.09
2022-10-11T08:56:26.357Z,96711.00
2022-10-11T08:59:01.424Z,96711.47
2022-10-11T09:01:33.204Z,96717.66
2022-10-11T09:04:07.331Z,96718.56
2022-10-11T09:06:44.576Z,96717.16
2022-10-11T09:09:29.859Z,96722.97
2022-10-11T09:12:10.944Z,96719.00
2022-10-11T09:15:10.716Z,96717.97
2022-10-11T09:17:56.886Z,96727.75
2022-10-11T09:20:49.397Z,96721.16
2022-10-11T09:23:34.648Z,96723.13
2022-10-11T09:26:09.872Z,96721.16
2022-10-11T09:28:50.680Z,96723.88
2022-10-11T09:31:22.304Z,96725.03
2022-10-11T09:33:54.280Z,96726.22
2022-10-11T09:36:31.955Z,96725.50
2022-10-11T09:39:08.621Z,96733.97
2022-10-11T09:41:46.780Z,96737.00
2022-10-11T09:44:24.629Z,96734.25
2022-10-11T09:46:56.694Z,96742.19
2022-10-11T09:49:32.426Z,96738.28
2022-10-11T09:52:06.860Z,96744.66
2022-10-11T09:54:43.718Z,96737.44
2022-10-11T09:57:26.730Z,96744.06
2022-10-11T10:00:07.046Z,96751.56
2022-10-11T10:02:45.307Z,96750.09
2022-10-11T10:05:20.375Z,96749.13
2022-10-11T10:08:05.442Z,96744.66
2022-10-11T10:10:40.932Z,96748.34
2022-10-11T10:13:24.130Z,96750.41
2022-10-11T10:15:58.620Z,96749.84
2022-10-11T10:18:37.951Z,96759.13
2022-10-11T10:21:11.893Z,96761.19
2022-10-11T10:23:45.249Z,96758.03
2022-10-11T10:26:18.909Z,96755.28
2022-10-11T10:29:04.033Z,96756.91
2022-10-11T10:31:55.289Z,96758.97
2022-10-11T10:34:33.836Z,96763.34
2022-10-11T10:37:10.273Z,96761.28
2022-10-11T10:39:44.621Z,96762.09
2022-10-11T10:42:17.600Z,96765.66
2022-10-11T10:44:49.799Z,96764.00
2022-10-11T10:47:27.884Z,96763.88
2022-10-11T10:50:05.185Z,96765.78
2022-10-11T10:52:47.352Z,96770.06
2022-10-11T10:55:25.294Z,96759.47
2022-10-11T10:58:07.371Z,96772.59
2022-10-11T11:00:44.433Z,96764.56
2022-10-11T11:03:23.834Z,96775.34
2022-10-11T11:06:03.894Z,96766.25
2022-10-11T11:08:58.306Z,96778.94
2022-10-11T11:11:39.271Z,96770.38
2022-10-11T11:14:20.249Z,96774.72
2022-10-11T11:16:56.758Z,96772.53
2022-10-11T11:19:38.533Z,96781.72
2022-10-11T11:22:13.948Z,96769.59
2022-10-11T11:24:52.232Z,96773.00
2022-10-11T11:27:37.751Z,96776.00
2022-10-11T11:30:13.363Z,96774.66
2022-10-11T11:32:50.181Z,96772.34
2022-10-11T11:35:27.524Z,96780.34
2022-10-11T11:38:06.320Z,96784.41
2022-10-11T11:40:41.195Z,96772.72
2022-10-11T11:43:19.997Z,96778.59
2022-10-11T11:45:55.282Z,96778.88
2022-10-11T11:48:27.769Z,96781.16
2022-10-11T11:51:04.722Z,96775.84
2022-10-11T11:53:49.139Z,96782.00
2022-10-11T11:56:28.148Z,96779.09
2022-10-11T11:59:05.976Z,96777.63
2022-10-11T12:01:42.008Z,96775.72
2022-10-11T12:04:20.222Z,96779.78
2022-10-11T12:07:16.048Z,96778.88
2022-10-11T12:09:51.602Z,96772.88
2022-10-11T12:12:31.786Z,96780.34
2022-10-11T12:15:22.073Z,96777.06
2022-10-11T12:18:11.124Z,96777.06
2022-10-11T12:20:43.548Z,96768.22
2022-10-11T12:23:43.919Z,96780.34
2022-10-11T12:26:39.436Z,96779.66
2022-10-11T12:29:29.114Z,96777.06
2022-10-11T12:32:55.018Z,96771.22
2022-10-11T12:35:45.001Z,96770.81
2022-10-11T12:38:22.201Z,96772.97
2022-10-11T12:40:55.423Z,96772.97
2022-10-11T12:43:39.704Z,96776.22
2022-10-11T12:46:46.160Z,96774.19
2022-10-11T12:49:33.649Z,96770.53
2022-10-11T12:52:23.752Z,96772.97
2022-10-11T12:55:16.385Z,96772.69
2022-10-11T12:58:14.145Z,96771.78
2022-10-11T13:00:47.197Z,96771.06
2022-10-11T13:03:32.762Z,96771.50
2022-10-11T13:06:13.025Z,96770.25
2022-10-11T13:08:47.709Z,96763.75
2022-10-11T13:11:21.820Z,96775.19
2022-10-11T13:13:55.687Z,96769.72
2022-10-11T13:16:28.231Z,96774.66
2022-10-11T13:19:03.577Z,96762.50
2022-10-11T13:21:37.590Z,96766.06
2022-10-11T13:24:17.875Z,96774.75
2022-10-11T13:26:52.301Z,96769.06
2022-10-11T13:29:32.000Z,96768.63
2022-10-11T13:32:06.283Z,96769.06
2022-10-11T13:34:40.843Z,96771.81
2022-10-11T13:37:19.544Z,96772.47
2022-10-11T13:39:57.242Z,96772.19
2022-10-11T13:42:32.811Z,96768.91
2022-10-11T13:45:04.470Z,96767.03
2022-10-11T13:47:37.768Z,96767.31
2022-10-11T13:50:19.691Z,96775.47
2022-10-11T13:52:56.521Z,96766.50
2022-10-11T13:55:32.824Z,96766.50
2022-10-11T13:58:04.760Z,96767.31
2022-10-11T14:00:36.950Z,96762.81
2022-10-11T14:03:12.881Z,96765.28
2022-10-11T14:05:50.420Z,96757.22
2022-10-11T14:08:24.884Z,96759.41
2022-10-11T14:10:59.364Z,96756.94
2022-10-11T14:13:34.526Z,96767.13
2022-10-11T14:16:10.784Z,96766.47
2022-10-11T14:18:48.393Z,96759.72
2022-10-11T14:21:30.536Z,96766.25
2022-10-11T14:24:02.515Z,96759.03
2022-10-11T14:26:37.617Z,96757.81
2022-10-11T14:29:10.239Z,96765.78
2022-10-11T14:31:41.918Z,96762.38
2022-10-11T14:34:19.604Z,96766.06
2022-10-11T14:36:51.465Z,96769.75
2022-10-11T14:39:23.660Z,96763.63
2022-10-11T14:41:55.984Z,96765.97
2022-10-11T14:44:26.882Z,96760.19
2022-10-11T14:46:56.624Z,96758.63
2022-10-11T14:49:27.712Z,96748.03
2022-10-11T14:51:59.302Z,96759.78
2022-10-11T14:54:30.406Z,96766.22
2022-10-11T14:57:03.929Z,96755.28
2022-10-11T14:59:37.658Z,96754.47
2022-10-11T15:02:11.281Z,96754.06
2022-10-11T15:04:43.440Z,96760.00
2022-10-11T15:07:14.949Z,96760.59
2022-10-11T15:09:45.463Z,96758.34
2022-10-11T15:12:19.066Z,96763.63
2022-10-11T15:14:49.623Z,96763.44
2022-10-11T15:17:20.316Z,96760.22
2022-10-11T15:19:56.721Z,96742.75
2022-10-11T15:22:29.283Z,96764.97
2022-10-11T15:25:01.338Z,96765.38
2022-10-11T15:27:34.046Z,96766.19
2022-10-11T15:30:05.563Z,96767.44
2022-10-11T15:32:36.632Z,96763.09
2022-10-11T15:35:08.993Z,96760.50
2022-10-11T15:37:40.426Z,96758.28
2022-10-11T15:40:19.093Z,96759.53
2022-10-11T15:42:52.131Z,96764.16
2022-10-11T15:45:23.557Z,96766.75
2022-10-11T15:47:53.650Z,96769.69
2022-10-11T15:50:36.183Z,96769.94
2022-10-11T15:53:07.074Z,96764.34
2022-10-11T15:55:38.414Z,96761.19
2022-10-11T15:58:11.340Z,96752.94
2022-10-11T16:00:40.863Z,96762.56
2022-10-11T16:03:12.477Z,96757.25
2022-10-11T16:05:43.041Z,96767.28
2022-10-11T16:08:13.018Z,96766.44
2022-10-11T16:10:43.557Z,96766.00
2022-10-11T16:13:16.533Z,96773.53
2022-10-11T16:15:50.084Z,96765.75
2022-10-11T16:18:24.639Z,96775.22
2022-10-11T16:20:57.871Z,96777.34
2022-10-11T16:23:31.593Z,96771.31
2022-10-11T16:26:06.068Z,96776.97
2022-10-11T16:28:41.638Z,96778.28
2022-10-11T16:31:14.506Z,96778.91
2022-10-11T16:33:48.018Z,96779.38
2022-10-11T16:36:36.519Z,96775.78
2022-10-11T16:39:10.659Z,96782.03
2022-10-11T16:41:40.789Z,96793.78
2022-10-11T16:44:14.887Z,96790.72
2022-10-11T16:46:48.580Z,96780.31
2022-10-11T16:49:24.319Z,96800.66
2022-10-11T16:52:01.274Z,96810.84
2022-10-11T16:54:35.457Z,96806.66
2022-10-11T16:57:10.978Z,96807.94
2022-10-11T16:59:48.757Z,96807.69
2022-10-11T17:02:25.817Z,96813.66
2022-10-11T17:05:12.097Z,96817.03
2022-10-11T17:07:48.306Z,96809.69
2022-10-11T17:10:42.230Z,96816.84
2022-10-11T17:13:19.036Z,96811.69
2022-10-11T17:15:57.191Z,96812.50
2022-10-11T17:18:35.011Z,96809.94
2022-10-11T17:21:12.502Z,96810.50
2022-10-11T17:23:48.611Z,96817.41
2022-10-11T17:26:26.682Z,96812.25
2022-10-11T17:29:04.227Z,96815.09
2022-10-11T17:31:46.703Z,96816.97
2022-10-11T17:34:24.211Z,96817.09
2022-10-11T17:37:00.837Z,96808.66
2022-10-11T17:39:34.633Z,96815.66
2022-10-11T17:42:12.225Z,96811.78
2022-10-11T17:44:47.452Z,96814.16
2022-10-11T17:47:26.387Z,96810.09
2022-10-11T17:50:02.848Z,96816.41
2022-10-11T17:52:39.311Z,96822.84
2022-10-11T17:55:15.593Z,96817.94
2022-10-11T17:57:53.229Z,96818.06
2022-10-11T18:00:28.228Z,96814.09
2022-10-11T18:03:07.338Z,96806.94
2022-10-11T18:05:47.031Z,96812.09
2022-10-11T18:08:25.471Z,96812.34
2022-10-11T18:11:01.528Z,96815.28
2022-10-11T18:13:39.240Z,96810.13
2022-10-11T18:16:14.636Z,96813.88
2022-10-11T18:18:55.874Z,96816.19
2022-10-11T18:21:34.262Z,96815.50
2022-10-11T18:24:13.844Z,96814.25
2022-10-11T18:26:50.076Z,96812.00
2022-10-11T18:29:25.629Z,96814.81
2022-10-11T18:32:02.279Z,96815.66
2022-10-11T18:34:44.558Z,96823.50
2022-10-11T18:37:20.149Z,96816.56
2022-10-11T18:39:58.034Z,96824.28
2022-10-11T18:42:34.913Z,96823.50
2022-10-11T18:45:12.482Z,96826.16
2022-10-11T18:47:48.276Z,96826.16
2022-10-11T18:50:30.109Z,96825.38
2022-10-11T18:55:43.321Z,96811.31
2022-10-11T18:58:20.185Z,96814.72
2022-10-11T19:00:58.308Z,96815.66
2022-10-11T19:03:35.433Z,96811.56
2022-10-11T19:06:18.755Z,96813.19
2022-10-11T19:08:58.667Z,96810.13
2022-10-11T19:11:33.111Z,96818.69
2022-10-11T19:14:09.866Z,96823.00
2022-10-11T19:16:48.665Z,96818.69
2022-10-11T19:19:25.930Z,96814.38
2022-10-11T19:22:05.552Z,96814.25
2022-10-11T19:24:40.740Z,96822.69
2022-10-11T19:27:18.300Z,96818.56
2022-10-11T19:29:53.161Z,96817.78
2022-10-11T19:32:27.874Z,96823.94
2022-10-11T19:35:05.069Z,96822.22
2022-10-11T19:37:42.978Z,96825.09
2022-10-11T19:40:19.425Z,96822.78
2022-10-11T19:42:54.793Z,96829.00
2022-10-11T19:45:31.486Z,96823.84
2022-10-11T19:48:07.816Z,96827.34
2022-10-11T19:50:42.313Z,96824.88
2022-10-11T19:53:20.423Z,96832.00
2022-10-11T19:55:56.173Z,96827.09
2022-10-11T19:58:33.978Z,96836.31
2022-10-11T20:01:13.117Z,96838.09
2022-10-11T20:03:52.215Z,96836.44
2022-10-11T20:06:37.226Z,96830.69
2022-10-11T20:09:29.068Z,96833.41
2022-10-11T20:12:04.970Z,96835.06
2022-10-11T20:14:41.347Z,96830.34
2022-10-11T20:17:18.316Z,96839.13
2022-10-11T20:20:01.011Z,96833.28
2022-10-11T20:22:38.446Z,96835.84
2022-10-11T20:25:21.433Z,96836.75
2022-10-11T20:27:59.384Z,96831.41
2022-10-11T20:30:45.342Z,96835.13
2022-10-11T20:33:25.409Z,96833.94
2022-10-11T20:36:08.409Z,96831.84
2022-10-11T20:38:48.733Z,96833.94
2022-10-11T20:41:31.116Z,96816.31
2022-10-11T20:44:07.729Z,96831.16
2022-10-11T20:46:47.421Z,96828.13
2022-10-11T20:49:25.426Z,96831.84
2022-10-11T20:52:05.656Z,96838.03
2022-10-11T20:54:44.915Z,96829.00
2022-10-11T20:57:26.923Z,96837.19
2022-10-11T21:00:06.352Z,96839.41
2022-10-11T21:02:46.554Z,96831.25
2022-10-11T21:05:25.437Z,96832.53
2022-10-11T21:08:07.375Z,96833.66
2022-10-11T21:10:43.792Z,96843.00
2022-10-11T21:13:25.373Z,96837.97
2022-10-11T21:16:08.978Z,96838.69
2022-10-11T21:18:48.302Z,96839.53
2022-10-11T21:21:26.472Z,96845.97
2022-10-11T21:24:09.376Z,96844.81
2022-10-11T21:26:47.667Z,96843.88
2022-10-11T21:29:32.932Z,96848.69
2022-10-11T21:32:14.557Z,96846.81
2022-10-11T21:34:55.999Z,96844.97
2022-10-11T21:37:35.961Z,96858.63
2022-10-11T21:40:15.542Z,96841.69
2022-10-11T21:42:53.945Z,96846.47
2022-10-11T21:45:35.818Z,96843.88
2022-10-11T21:48:15.404Z,96833.81
2022-10-11T21:50:53.570Z,96837.31
2022-10-11T21:53:34.099Z,96838.38
2022-10-11T21:56:15.390Z,96839.53
2022-10-11T21:58:52.883Z,96835.81
2022-10-11T22:01:36.441Z,96837.31
2022-10-11T22:04:14.899Z,96833.25
2022-10-11T22:06:51.564Z,96824.81
2022-10-11T22:09:32.458Z,96819.31
2022-10-11T22:12:10.832Z,96814.19
2022-10-11T22:14:50.030Z,96804.97
2022-10-11T22:17:31.746Z,96817.84
2022-10-11T22:20:10.493Z,96809.09
2022-10-11T22:22:51.802Z,96809.09
2022-10-11T22:25:33.407Z,96798.53
2022-10-11T22:28:12.672Z,96813.75
2022-10-11T22:30:50.997Z,96816.22
2022-10-11T22:33:32.997Z,96793.50
2022-10-11T22:36:12.082Z,96811.84
2022-10-11T22:38:50.483Z,96802.28
2022-10-11T22:41:30.116Z,96805.53
2022-10-11T22:44:09.190Z,96805.34
2022-10-11T22:46:46.960Z,96802.28
2022-10-11T22:49:29.116Z,96800.50
2022-10-11T22:52:10.621Z,96804.97
2022-10-11T22:54:49.914Z,96791.59
2022-10-11T22:57:29.429Z,96804.84
2022-10-11T23:00:09.334Z,96802.28
2022-10-11T23:02:49.959Z,96805.88
2022-10-11T23:05:32.730Z,96810.16
2022-10-11T23:08:11.155Z,96811.00
2022-10-11T23:10:51.863Z,96798.94
2022-10-11T23:13:32.321Z,96799.53
2022-10-11T23:16:15.040Z,96807.75
2022-10-11T23:19:03.515Z,96807.63
2022-10-11T23:21:49.118Z,96792.78
2022-10-11T23:24:28.781Z,96804.97
2022-10-11T23:27:10.504Z,96808.22
2022-10-11T23:29:51.460Z,96816.03
2022-10-11T23:32:34.175Z,96810.78
2022-10-11T23:35:14.989Z,96806.81
2022-10-11T23:38:02.347Z,96809.28
2022-10-11T23:40:44.314Z,96814.19
2022-10-11T23:43:23.788Z,96811.50
2022-10-11T23:46:04.478Z,96818.50
2022-10-11T23:48:43.543Z,96805.16
2022-10-11T23:51:20.314Z,96805.75
2022-10-11T23:54:02.467Z,96798.16
2022-10-11T23:56:39.472Z,96804.38
2022-10-11T23:59:17.219Z,96808.69
